Time;durP1;ratioP1;P1;durP2;ratioP2;P2;SDS_P1;SDS_P2;PMS_P1;PMS_P2;Temp;Humidity;BMP_temperature;BMP_pressure;BME280_temperature;BME280_humidity;BME280_pressure;Samples;Min_cycle;Max_cycle;Signal;HPM_P1;HPM_P2
2023/06/12 00:00:46;;;;;;;1.27;1.23;;;;;17.10;95887.00;;;;5053501;28;20204;-54
2023/06/12 00:03:13;;;;;;;0.83;0.83;;;;;16.90;95884.00;;;;5053324;28;20192;-55
2023/06/12 00:05:44;;;;;;;1.87;1.77;;;;;16.90;95885.00;;;;5051558;28;20219;-54
2023/06/12 00:08:13;;;;;;;1.83;1.73;;;;;17.10;95885.00;;;;5053251;28;20184;-54
2023/06/12 00:10:41;;;;;;;2.20;2.00;;;;;17.10;95885.00;;;;5052755;28;20227;-55
2023/06/12 00:13:09;;;;;;;1.77;1.67;;;;;17.00;95885.00;;;;5052944;28;20195;-56
2023/06/12 00:15:36;;;;;;;1.47;1.37;;;;;17.00;95884.00;;;;5053150;28;20598;-56
2023/06/12 00:18:04;;;;;;;0.80;0.80;;;;;17.00;95887.00;;;;5052844;28;20199;-55
2023/06/12 00:20:32;;;;;;;1.13;1.13;;;;;16.90;95884.00;;;;5051446;28;20679;-55
2023/06/12 00:23:01;;;;;;;1.47;1.37;;;;;16.90;95881.00;;;;5053041;28;20559;-55
2023/06/12 00:25:29;;;;;;;0.90;0.90;;;;;16.90;95884.00;;;;5053021;28;20227;-56
2023/06/12 00:27:57;;;;;;;0.90;0.90;;;;;16.70;95881.00;;;;5053062;28;20571;-58
2023/06/12 00:30:24;;;;;;;1.30;1.20;;;;;16.70;95881.00;;;;5051168;28;20215;-56
2023/06/12 00:32:52;;;;;;;1.67;1.57;;;;;16.30;95880.00;;;;5053237;28;20188;-58
2023/06/12 00:35:19;;;;;;;1.60;1.50;;;;;16.40;95888.00;;;;5052728;28;20196;-56
2023/06/12 00:37:47;;;;;;;1.13;1.10;;;17.10;47.70;16.40;95857.00;;;;5052692;28;20196;-56
2023/06/12 00:40:16;;;;;;;1.20;1.20;;;17.00;48.20;16.40;95874.00;;;;5052952;28;20188;-56
2023/06/12 00:42:46;;;;;;;1.43;1.33;;;17.00;48.30;16.40;95880.00;;;;5053063;28;20188;-56
2023/06/12 00:45:14;;;;;;;1.70;1.60;;;17.00;48.40;16.30;95883.00;;;;5052553;28;20215;-56
2023/06/12 00:47:43;;;;;;;1.67;1.57;;;16.90;48.40;16.30;95883.00;;;;5051321;28;20192;-56
2023/06/12 00:50:12;;;;;;;1.57;1.47;;;16.90;48.40;16.40;95880.00;;;;5052526;28;20246;-56
2023/06/12 00:52:44;;;;;;;1.30;1.30;;;16.90;48.70;16.30;95880.00;;;;5052540;28;20659;-56
2023/06/12 00:55:11;;;;;;;1.03;1.03;;;16.90;48.30;16.40;95883.00;;;;5052564;28;20238;-55
2023/06/12 00:57:41;;;;;;;0.87;0.87;;;16.90;48.70;16.30;95882.00;;;;5055670;28;20196;-56
2023/06/12 01:00:11;;;;;;;1.40;1.40;;;16.90;48.30;16.20;95879.00;;;;5056630;28;20223;-56
2023/06/12 01:02:44;;;;;;;0.97;0.97;;;16.80;48.80;16.20;95885.00;;;;5056730;28;20214;-56
2023/06/12 01:05:14;;;;;;;0.70;0.70;;;16.80;48.60;16.20;95878.00;;;;5056347;28;20273;-55
2023/06/12 01:07:48;;;;;;;0.90;0.90;;;16.80;48.70;16.10;95875.00;;;;5056431;28;20177;-56
2023/06/12 01:10:27;;;;;;;1.50;1.40;;;16.80;48.50;16.10;95879.00;;;;5056632;28;20176;-56
2023/06/12 01:12:58;;;;;;;1.70;1.60;;;16.70;48.90;16.10;95877.00;;;;5056518;28;20276;-56
2023/06/12 01:15:25;;;;;;;1.53;1.53;;;16.70;49.20;16.10;95880.00;;;;5056253;28;20190;-56
2023/06/12 01:17:58;;;;;;;2.33;2.13;;;16.70;48.90;16.00;95880.00;;;;5056257;28;20222;-55
2023/06/12 01:20:26;;;;;;;1.67;1.57;;;16.60;50.10;16.00;95880.00;;;;5056285;28;20211;-55
2023/06/12 01:23:02;;;;;;;2.37;2.17;;;16.60;49.50;16.00;95869.00;;;;5056154;28;20273;-57
2023/06/12 01:26:10;;;;;;;1.20;1.20;;;16.60;49.50;15.90;95877.00;;;;5056111;28;20601;-55
2023/06/12 01:29:38;;;;;;;2.10;1.50;;;16.60;49.50;15.90;95876.00;;;;5055993;28;20177;-55
2023/06/12 01:32:08;;;;;;;1.30;1.27;;;16.60;49.60;15.80;95880.00;;;;5060212;22;20244;-58
2023/06/12 01:34:50;;;;;;;1.90;1.80;;;16.50;49.50;15.70;95878.00;;;;5036080;28;20188;-58
2023/06/12 01:37:26;;;;;;;0.90;0.90;;;16.40;49.80;15.70;95882.00;;;;5035887;28;20260;-58
2023/06/12 01:39:59;;;;;;;1.50;1.40;;;16.30;50.30;15.80;95873.00;;;;5034672;28;20600;-58
2023/06/12 01:42:28;;;;;;;2.00;1.90;;;;;15.60;95870.00;;;;5035959;28;20228;-58
2023/06/12 01:44:55;;;;;;;1.00;1.00;;;;;15.60;95863.00;;;;5035469;28;20664;-58
2023/06/12 01:47:25;;;;;;;1.27;1.17;;;;;15.40;95867.00;;;;5035599;28;20196;-58
2023/06/12 01:49:52;;;;;;;2.23;1.70;;;;;15.30;95871.00;;;;5035517;28;20743;-58
2023/06/12 01:52:20;;;;;;;1.40;1.33;;;;;15.30;95867.00;;;;5035402;28;20236;-58
2023/06/12 01:54:48;;;;;;;1.67;1.60;;;16.00;50.70;15.30;95865.00;;;;5035509;28;20200;-58
2023/06/12 01:57:19;;;;;;;1.03;1.03;;;16.00;51.50;15.40;95866.00;;;;5035596;28;20192;-58
2023/06/12 01:59:46;;;;;;;2.60;2.40;;;15.90;51.30;15.50;95861.00;;;;5035620;28;20193;-58
2023/06/12 02:02:13;;;;;;;1.73;1.63;;;16.00;50.90;15.30;95864.00;;;;5035256;28;20213;-58
2023/06/12 02:04:42;;;;;;;2.50;1.37;;;15.80;50.30;15.20;95872.00;;;;5035302;28;20192;-58
2023/06/12 02:07:11;;;;;;;1.60;1.50;;;15.80;51.00;15.00;95867.00;;;;5035559;28;20197;-58
2023/06/12 02:09:38;;;;;;;1.07;1.07;;;15.70;51.60;15.10;95869.00;;;;5034277;28;20189;-58
2023/06/12 02:12:06;;;;;;;1.20;1.20;;;15.70;51.70;15.30;95866.00;;;;5035151;28;20219;-58
2023/06/12 02:14:33;;;;;;;1.77;1.67;;;15.80;51.50;15.30;95871.00;;;;5035331;28;20192;-58
2023/06/12 02:17:02;;;;;;;1.47;1.37;;;15.90;51.20;15.30;95865.00;;;;5035224;28;20200;-58
2023/06/12 02:19:29;;;;;;;1.60;1.50;;;15.90;51.30;15.20;95873.00;;;;5034986;28;20197;-58
2023/06/12 02:21:59;;;;;;;1.27;1.17;;;15.90;51.00;15.20;95865.00;;;;5035039;28;20209;-58
2023/06/12 02:24:29;;;;;;;2.03;1.90;;;15.90;51.10;15.20;95871.00;;;;5034819;28;20283;-58
2023/06/12 02:26:56;;;;;;;1.23;1.23;;;15.80;51.10;15.10;95869.00;;;;5035041;28;20204;-58
2023/06/12 02:29:23;;;;;;;1.53;1.43;;;15.70;51.60;15.10;95870.00;;;;5035295;28;20200;-59
2023/06/12 02:31:50;;;;;;;1.07;1.07;;;15.80;51.30;15.20;95877.00;;;;5034679;28;20656;-58
2023/06/12 02:34:17;;;;;;;1.53;1.43;;;15.70;51.20;15.00;95876.00;;;;5034656;28;20748;-58
2023/06/12 02:36:46;;;;;;;1.50;1.40;;;15.70;51.10;14.90;95872.00;;;;5034653;28;20196;-58
2023/06/12 02:39:15;;;;;;;1.40;1.40;;;15.60;51.50;14.70;95871.00;;;;5033392;28;20558;-58
2023/06/12 02:41:44;;;;;;;0.97;0.97;;;15.40;52.10;14.80;95869.00;;;;5034741;28;20235;-58
2023/06/12 02:44:11;;;;;;;1.83;1.73;;;15.40;58.40;14.80;95864.00;;;;5034469;28;20239;-58
2023/06/12 02:46:52;;;;;;;1.13;1.13;;;15.40;52.50;14.80;95868.00;;;;5034820;28;20635;-58
2023/06/12 02:49:19;;;;;;;1.63;1.53;;;;;14.70;95870.00;;;;5034673;28;20185;-58
2023/06/12 02:51:47;;;;;;;1.40;1.30;;;15.30;52.20;14.60;95870.00;;;;5035008;28;20252;-58
2023/06/12 02:54:17;;;;;;;1.17;1.13;;;15.30;52.80;14.60;95867.00;;;;5033789;28;20688;-58
2023/06/12 02:56:45;;;;;;;1.20;1.20;;;15.30;52.70;14.70;95880.00;;;;5034992;28;20208;-58
2023/06/12 02:59:15;;;;;;;1.00;1.00;;;15.30;53.00;14.70;95870.00;;;;5034447;28;20602;-58
2023/06/12 03:01:43;;;;;;;2.33;2.10;;;15.40;52.60;14.90;95867.00;;;;5034014;28;20208;-59
2023/06/12 03:04:11;;;;;;;1.67;1.57;;;15.40;52.40;14.70;95879.00;;;;5034344;28;20189;-58
2023/06/12 03:06:39;;;;;;;1.23;1.17;;;15.30;52.50;14.60;95878.00;;;;5033832;28;20582;-58
2023/06/12 03:09:08;;;;;;;1.40;1.33;;;15.30;52.80;14.70;95875.00;;;;5034225;28;20287;-57
2023/06/12 03:11:37;;;;;;;2.60;1.70;;;15.30;53.00;14.80;95870.00;;;;5033960;28;20255;-58
2023/06/12 03:14:05;;;;;;;2.10;1.40;;;15.30;52.80;14.70;95868.00;;;;5033903;28;20278;-58
2023/06/12 03:16:32;;;;;;;1.43;1.33;;;15.30;52.70;14.70;95872.00;;;;5032541;28;20745;-58
2023/06/12 03:18:59;;;;;;;1.10;1.10;;;15.30;52.70;14.60;95878.00;;;;5033607;28;20193;-58
2023/06/12 03:21:26;;;;;;;1.90;1.37;;;15.30;52.50;14.40;95876.00;;;;5033685;28;20212;-58
2023/06/12 03:23:54;;;;;;;1.63;1.53;;;15.00;52.70;14.30;95882.00;;;;5032375;28;20200;-59
2023/06/12 03:26:20;;;;;;;1.40;1.30;;;14.90;53.00;14.40;95878.00;;;;5033517;28;20228;-58
2023/06/12 03:28:50;;;;;;;0.87;0.87;;;15.00;53.80;14.40;95879.00;;;;5033660;28;20193;-58
2023/06/12 03:31:17;;;;;;;1.57;1.47;;;15.00;53.50;14.40;95880.00;;;;5033666;28;21138;-58
2023/06/12 03:33:44;;;;;;;1.23;1.23;;;15.00;52.50;14.60;95887.00;;;;5033529;28;20173;-58
2023/06/12 03:36:12;;;;;;;1.30;1.20;;;15.10;53.00;14.40;95886.00;;;;5033472;28;20192;-57
2023/06/12 03:38:39;;;;;;;1.13;1.13;;;;;14.40;95886.00;;;;5033665;28;20188;-57
2023/06/12 03:41:07;;;;;;;0.93;0.93;;;;;14.30;95890.00;;;;5033714;28;20192;-58
2023/06/12 03:43:34;;;;;;;1.43;1.43;;;14.90;52.30;14.30;95888.00;;;;5033375;28;20197;-58
2023/06/12 03:46:02;;;;;;;2.00;1.80;;;15.00;66.50;14.30;95892.00;;;;5033634;28;20223;-58
2023/06/12 03:48:29;;;;;;;1.37;1.30;;;14.90;53.20;14.40;95900.00;;;;5033258;28;20204;-58
2023/06/12 03:50:56;;;;;;;0.77;0.77;;;15.00;52.90;14.30;95900.00;;;;5033111;28;20193;-58
2023/06/12 03:53:23;;;;;;;1.43;1.37;;;14.90;52.90;14.30;95895.00;;;;5033043;28;20679;-58
2023/06/12 03:55:50;;;;;;;1.40;1.30;;;14.90;53.10;14.30;95892.00;;;;5033301;28;20193;-57
2023/06/12 03:58:17;;;;;;;2.10;1.93;;;14.90;53.10;14.30;95900.00;;;;5033087;28;20199;-58
2023/06/12 04:00:47;;;;;;;1.07;1.07;;;14.90;53.30;14.30;95900.00;;;;5033284;28;20606;-58
2023/06/12 04:03:18;;;;;;;0.90;0.90;;;14.90;53.20;14.30;95904.00;;;;5032998;28;20197;-58
2023/06/12 04:05:47;;;;;;;1.17;1.17;;;14.90;53.40;14.30;95916.00;;;;5033373;28;20204;-58
2023/06/12 04:08:14;;;;;;;1.87;1.77;;;14.90;53.30;14.40;95922.00;;;;5032985;28;20552;-57
2023/06/12 04:10:41;;;;;;;0.90;0.90;;;15.00;53.10;14.30;95918.00;;;;5032881;28;20185;-58
2023/06/12 04:13:08;;;;;;;1.33;1.30;;;14.90;52.90;14.30;95915.00;;;;5033346;28;20287;-57
2023/06/12 04:15:36;;;;;;;0.87;0.87;;;15.00;53.30;14.30;95917.00;;;;5032757;28;20193;-58
2023/06/12 04:18:04;;;;;;;1.00;1.00;;;15.00;53.00;14.50;95916.00;;;;5033036;28;20188;-58
2023/06/12 04:20:33;;;;;;;1.40;1.30;;;15.10;53.20;14.50;95922.00;;;;5031339;28;20224;-58
2023/06/12 04:23:04;;;;;;;1.47;1.40;;;15.00;53.30;14.50;95923.00;;;;5032709;28;20757;-58
2023/06/12 04:25:32;;;;;;;1.13;1.13;;;15.10;53.60;14.30;95924.00;;;;5032818;28;20177;-58
2023/06/12 04:28:00;;;;;;;2.33;2.07;;;14.90;53.60;14.40;95916.00;;;;5032747;28;20296;-58
2023/06/12 04:30:27;;;;;;;0.70;0.70;;;15.00;54.00;14.60;95927.00;;;;5032608;28;20185;-58
2023/06/12 04:32:56;;;;;;;1.33;1.33;;;15.20;53.90;14.70;95923.00;;;;5032066;28;20212;-58
2023/06/12 04:35:23;;;;;;;0.87;0.87;;;15.30;53.00;14.70;95925.00;;;;5032712;28;20217;-58
2023/06/12 04:37:52;;;;;;;2.07;1.90;;;15.30;53.00;14.60;95925.00;;;;5031285;28;20196;-58
2023/06/12 04:40:22;;;;;;;1.40;1.30;;;15.30;53.10;14.70;95924.00;;;;5032708;28;20551;-59
2023/06/12 04:42:53;;;;;;;1.97;1.87;;;15.30;53.30;14.70;95926.00;;;;5032627;28;20200;-57
2023/06/12 04:45:21;;;;;;;2.60;2.40;;;15.30;53.00;15.00;95922.00;;;;5032575;28;20267;-58
2023/06/12 04:47:49;;;;;;;1.47;1.37;;;15.50;53.40;15.20;95922.00;;;;5032509;28;20274;-57
2023/06/12 04:50:26;;;;;;;1.90;1.80;;;15.80;62.40;15.40;95922.00;;;;5032663;28;20225;-57
2023/06/12 04:52:55;;;;;;;7.37;1.47;;;15.90;57.00;15.30;95918.00;;;;5032418;28;20287;-58
2023/06/12 04:55:22;;;;;;;1.10;1.10;;;15.90;56.50;15.30;95925.00;;;;5032415;28;20197;-57
2023/06/12 04:57:52;;;;;;;1.47;1.37;;;15.80;68.40;15.00;95921.00;;;;5032439;28;20184;-59
2023/06/12 05:00:20;;;;;;;1.60;1.50;;;15.70;61.60;15.10;95926.00;;;;5047631;28;20723;-58
2023/06/12 05:02:49;;;;;;;1.50;1.40;;;15.80;70.50;15.00;95923.00;;;;5032369;28;20223;-58
2023/06/12 05:05:16;;;;;;;1.33;1.30;;;15.80;68.70;15.00;95921.00;;;;5032270;28;20182;-57
2023/06/12 05:07:46;;;;;;;1.40;1.30;;;15.60;57.30;15.10;95927.00;;;;5032103;28;20228;-58
2023/06/12 05:10:15;;;;;;;1.37;1.27;;;15.70;56.70;15.30;95928.00;;;;5032329;28;20263;-58
2023/06/12 05:12:42;;;;;;;2.07;1.97;;;16.00;66.40;15.60;95921.00;;;;5032321;28;20212;-58
2023/06/12 05:15:10;;;;;;;5.37;4.90;;;16.10;57.60;15.70;95915.00;;;;5032374;28;20212;-58
2023/06/12 05:17:38;;;;;;;11.23;9.00;;;16.20;58.80;15.70;95924.00;;;;5032142;28;20189;-57
2023/06/12 05:20:08;;;;;;;2.80;2.60;;;16.20;58.00;15.70;95920.00;;;;5032600;28;20654;-58
2023/06/12 05:22:36;;;;;;;1.00;1.00;;;16.20;57.10;15.80;95920.00;;;;5032177;28;20209;-58
2023/06/12 05:25:04;;;;;;;2.10;2.00;;;16.30;50.90;15.70;95926.00;;;;5032004;28;20243;-59
2023/06/12 05:27:33;;;;;;;2.00;1.70;;;16.30;52.00;15.70;95923.00;;;;5032248;28;20220;-59
2023/06/12 05:30:00;;;;;;;1.20;1.13;;;16.30;53.60;15.80;95920.00;;;;5032035;28;20189;-58
2023/06/12 05:32:27;;;;;;;1.10;1.10;;;16.40;54.70;15.90;95927.00;;;;5032131;28;20220;-59
2023/06/12 05:34:54;;;;;;;2.37;1.83;;;16.50;57.90;15.90;95938.00;;;;5030691;28;20192;-58
2023/06/12 05:37:21;;;;;;;5.50;1.67;;;16.50;56.60;16.00;95941.00;;;;5032247;28;20189;-58
2023/06/12 05:39:48;;;;;;;1.97;1.87;;;16.50;56.40;16.10;95929.00;;;;5032004;28;20196;-58
2023/06/12 05:42:16;;;;;;;1.67;1.43;;;16.60;57.20;16.20;95933.00;;;;5031833;28;20208;-58
2023/06/12 05:44:46;;;;;;;1.50;1.40;;;16.70;53.80;16.20;95920.00;;;;5035009;28;20189;-58
2023/06/12 05:47:13;;;;;;;1.27;1.20;;;16.70;56.70;16.40;95922.00;;;;5035436;28;20204;-58
2023/06/12 05:49:40;;;;;;;1.73;1.63;;;16.90;55.40;16.30;95926.00;;;;5035671;28;20201;-58
2023/06/12 05:52:08;;;;;;;1.33;1.33;;;16.90;53.00;16.40;95914.00;;;;5035284;28;20262;-58
2023/06/12 05:54:35;;;;;;;3.43;3.13;;;17.00;55.50;16.50;95923.00;;;;5035277;28;20683;-58
2023/06/12 05:57:02;;;;;;;0.83;0.83;;;17.10;56.00;16.70;95924.00;;;;5035220;28;20196;-59
2023/06/12 05:59:29;;;;;;;3.27;3.00;;;17.20;55.90;16.80;95926.00;;;;5035399;28;20242;-59
2023/06/12 06:01:58;;;;;;;1.47;1.43;;;17.30;55.30;16.90;95931.00;;;;5035375;28;20747;-58
2023/06/12 06:04:25;;;;;;;2.13;2.00;;;17.40;55.20;16.90;95920.00;;;;5035133;28;20201;-58
2023/06/12 06:06:53;;;;;;;1.67;1.57;;;17.40;55.60;16.80;95927.00;;;;5034918;28;20225;-58
2023/06/12 06:09:20;;;;;;;4.43;3.23;;;17.30;58.90;17.00;95913.00;;;;5035006;28;20260;-59
2023/06/12 06:11:47;;;;;;;3.47;3.17;;;17.50;59.60;17.10;95917.00;;;;5034912;28;20747;-59
2023/06/12 06:14:14;;;;;;;1.17;1.07;;;17.60;56.90;17.00;95925.00;;;;5035051;28;20185;-58
2023/06/12 06:16:42;;;;;;;1.13;1.13;;;17.50;58.20;17.10;95919.00;;;;5031275;28;20223;-59
2023/06/12 06:19:10;;;;;;;1.73;1.63;;;17.60;59.10;17.30;95934.00;;;;5041359;28;20203;-60
2023/06/12 06:21:38;;;;;;;1.10;1.10;;;17.90;62.50;17.40;95932.00;;;;5048359;28;20228;-61
2023/06/12 06:24:07;;;;;;;2.73;1.13;;;17.90;50.00;17.30;95937.00;;;;5032519;28;20684;-60
2023/06/12 06:26:34;;;;;;;1.10;1.10;;;17.80;50.60;17.50;95937.00;;;;5032703;28;20244;-58
2023/06/12 06:29:01;;;;;;;2.17;2.07;;;18.00;50.00;17.60;95933.00;;;;5040424;28;20231;-59
2023/06/12 06:31:30;;;;;;;1.97;1.87;;;18.00;49.60;17.80;95943.00;;;;5035696;28;20282;-58
2023/06/12 06:33:57;;;;;;;1.30;1.30;;;18.20;50.50;17.90;95934.00;;;;5051772;28;20188;-57
2023/06/12 06:36:25;;;;;;;1.10;1.10;;;18.40;48.50;18.10;95934.00;;;;5052743;28;20275;-57
2023/06/12 06:38:52;;;;;;;1.70;1.60;;;18.50;49.00;18.20;95938.00;;;;5052031;28;20196;-57
2023/06/12 06:41:20;;;;;;;0.90;0.90;;;18.70;48.60;18.40;95935.00;;;;5032703;28;20217;-57
2023/06/12 06:43:47;;;;;;;1.13;1.13;;;18.90;49.10;18.60;95943.00;;;;5032526;28;20238;-57
2023/06/12 06:46:14;;;;;;;0.90;0.90;;;19.00;46.40;18.90;95935.00;;;;5032247;28;20215;-57
2023/06/12 06:48:41;;;;;;;1.60;1.50;;;19.20;48.20;19.00;95941.00;;;;5032326;28;20204;-57
2023/06/12 06:51:08;;;;;;;1.10;1.10;;;19.40;48.70;19.10;95936.00;;;;5047876;28;20526;-57
2023/06/12 06:53:37;;;;;;;1.30;1.30;;;19.50;52.60;19.30;95940.00;;;;5030963;28;20278;-58
2023/06/12 06:56:04;;;;;;;1.20;1.20;;;19.70;58.80;19.50;95945.00;;;;5031939;28;20192;-58
2023/06/12 06:58:31;;;;;;;1.87;1.77;;;19.90;59.60;19.80;95945.00;;;;5032458;28;20268;-57
2023/06/12 07:00:59;;;;;;;0.80;0.80;;;20.20;52.70;19.70;95933.00;;;;5030307;28;20200;-58
2023/06/12 07:03:27;;;;;;;1.40;1.40;;;20.10;48.80;19.80;95929.00;;;;5032498;28;20552;-59
2023/06/12 07:05:54;;;;;;;1.83;1.73;;;20.20;48.60;19.80;95932.00;;;;5047372;28;20204;-56
2023/06/12 07:08:22;;;;;;;0.90;0.90;;;20.20;45.60;19.90;95945.00;;;;5031952;28;20225;-58
2023/06/12 07:10:50;;;;;;;3.60;0.97;;;20.30;44.20;20.10;95928.00;;;;5038022;28;20278;-60
2023/06/12 07:13:17;;;;;;;1.00;1.00;;;20.50;42.60;20.10;95931.00;;;;5051739;28;20206;-58
2023/06/12 07:15:44;;;;;;;1.10;1.00;;;20.50;41.80;20.20;95926.00;;;;5051710;28;20192;-58
2023/06/12 07:18:11;;;;;;;1.17;1.17;;;20.60;42.00;20.20;95931.00;;;;5051637;28;20223;-59
2023/06/12 07:20:39;;;;;;;1.57;1.47;;;20.70;43.90;20.50;95932.00;;;;5051664;28;20208;-59
2023/06/12 07:23:06;;;;;;;0.80;0.80;;;;;20.60;95935.00;;;;5051533;28;20223;-59
2023/06/12 07:25:33;;;;;;;1.67;1.57;;;21.00;39.40;20.70;95922.00;;;;5051513;28;20196;-60
2023/06/12 07:28:02;;;;;;;1.25;1.25;;;21.10;49.80;20.80;95931.00;;;;5051436;28;20628;-59
2023/06/12 07:30:30;;;;;;;1.50;1.40;;;;;20.90;95927.00;;;;5038402;28;20220;-59
2023/06/12 07:32:57;;;;;;;2.08;1.88;;;21.20;38.60;20.90;95930.00;;;;5045196;22;20597;-54
2023/06/12 07:35:24;;;;;;;2.65;1.17;;;21.20;38.50;21.00;95916.00;;;;5031766;28;20195;-55
2023/06/12 07:37:51;;;;;;;1.15;1.15;;;21.40;38.10;21.10;95929.00;;;;5030419;28;20200;-55
2023/06/12 07:40:18;;;;;;;1.17;1.17;;;21.50;36.90;21.10;95926.00;;;;5031658;28;20193;-55
2023/06/12 07:42:46;;;;;;;1.98;1.88;;;21.50;37.40;21.10;95928.00;;;;5021555;28;20718;-55
2023/06/12 07:45:14;;;;;;;1.33;1.23;;;21.50;38.50;21.00;95927.00;;;;5011865;28;20264;-55
2023/06/12 07:47:42;;;;;;;0.73;0.73;;;21.40;36.60;21.30;95918.00;;;;5011747;28;20263;-55
2023/06/12 07:50:10;;;;;;;1.50;1.40;;;;;21.30;95926.00;;;;5011627;28;20194;-55
2023/06/12 07:52:37;;;;;;;1.70;1.60;;;21.70;35.50;21.50;95922.00;;;;5011618;28;20530;-55
2023/06/12 07:55:06;;;;;;;1.45;1.35;;;21.80;38.60;21.80;95925.00;;;;5010134;28;20197;-55
2023/06/12 07:57:34;;;;;;;1.65;1.55;;;22.10;39.90;21.60;95916.00;;;;5026813;28;20201;-55
2023/06/12 08:00:05;;;;;;;1.77;1.02;;;22.00;35.00;21.60;95920.00;;;;5011677;28;20243;-55
2023/06/12 08:02:34;;;;;;;1.13;1.13;;;22.10;35.30;21.50;95921.00;;;;5011133;28;20779;-55
2023/06/12 08:05:03;;;;;;;1.08;1.08;;;22.00;35.60;21.80;95922.00;;;;5044003;28;20193;-55
2023/06/12 08:07:31;;;;;;;0.77;0.77;;;22.20;36.00;22.00;95918.00;;;;5030250;28;20217;-55
2023/06/12 08:09:58;;;;;;;1.15;0.98;;;22.30;35.60;22.00;95913.00;;;;5031474;28;20914;-56
2023/06/12 08:12:25;;;;;;;1.35;1.10;;;22.40;35.00;21.90;95918.00;;;;5029337;28;20715;-55
2023/06/12 08:14:53;;;;;;;1.20;1.20;;;22.40;34.10;22.10;95905.00;;;;5030997;28;20219;-55
2023/06/12 08:17:21;;;;;;;0.80;0.80;;;22.40;34.30;22.10;95919.00;;;;5031019;28;20287;-55
2023/06/12 08:19:50;;;;;;;0.95;0.95;;;22.50;34.20;22.20;95916.00;;;;5018055;28;20201;-55
2023/06/12 08:22:17;;;;;;;0.95;0.95;;;22.60;33.60;22.40;95916.00;;;;5011216;28;20213;-55
2023/06/12 08:24:46;;;;;;;1.83;1.73;;;22.70;33.20;22.50;95916.00;;;;5011325;28;20205;-55
2023/06/12 08:27:13;;;;;;;1.25;1.25;;;22.80;31.10;22.70;95921.00;;;;5011394;28;20232;-55
2023/06/12 08:29:40;;;;;;;1.23;1.13;;;23.00;31.70;22.60;95916.00;;;;5011593;28;20288;-54
2023/06/12 08:32:10;;;;;;;3.83;1.48;;;23.00;30.60;22.70;95915.00;;;;5011067;28;20241;-54
2023/06/12 08:34:38;;;;;;;0.75;0.75;;;23.00;31.50;22.80;95910.00;;;;5011569;28;20189;-54
2023/06/12 08:37:06;;;;;;;1.13;1.13;;;23.10;30.70;22.70;95904.00;;;;5010730;28;20763;-55
2023/06/12 08:39:33;;;;;;;1.05;1.05;;;23.20;30.50;22.90;95905.00;;;;5011505;28;20300;-55
2023/06/12 08:42:08;;;;;;;0.98;0.98;;;23.20;30.60;22.80;95907.00;;;;5010734;28;20296;-55
2023/06/12 08:44:36;;;;;;;1.17;1.17;;;23.20;31.00;23.10;95911.00;;;;5009820;28;20209;-55
2023/06/12 08:47:05;;;;;;;1.42;1.33;;;23.30;29.70;23.20;95901.00;;;;5009705;28;20308;-55
2023/06/12 08:49:32;;;;;;;1.05;1.05;;;23.40;29.40;23.30;95898.00;;;;5011413;28;20197;-55
2023/06/12 08:52:01;;;;;;;0.93;0.93;;;23.70;32.80;23.40;95906.00;;;;5009523;28;20304;-55
2023/06/12 08:54:33;;;;;;;1.40;1.30;;;23.70;27.10;23.30;95904.00;;;;5030436;28;20200;-55
2023/06/12 08:57:02;;;;;;;0.80;0.77;;;23.70;26.90;23.30;95906.00;;;;5030869;28;20181;-55
2023/06/12 08:59:29;;;;;;;1.00;1.00;;;23.70;26.30;23.50;95899.00;;;;5030612;28;20247;-55
2023/06/12 09:01:58;;;;;;;0.88;0.88;;;23.80;24.80;23.20;95901.00;;;;5015248;28;20300;-55
2023/06/12 09:04:37;;;;;;;1.98;1.85;;;23.70;24.60;23.60;95906.00;;;;5011356;28;20231;-55
2023/06/12 09:07:05;;;;;;;1.10;1.10;;;23.80;26.40;23.30;95895.00;;;;5010870;28;20256;-55
2023/06/12 09:09:41;;;;;;;1.33;1.23;;;23.80;24.90;23.50;95899.00;;;;5010786;28;20198;-55
2023/06/12 09:12:12;;;;;;;1.13;1.10;;;23.90;24.20;23.60;95896.00;;;;5010696;28;20244;-55
2023/06/12 09:14:41;;;;;;;2.33;1.33;;;24.00;24.30;23.30;95894.00;;;;5009634;28;20248;-55
2023/06/12 09:17:09;;;;;;;1.65;1.55;;;23.80;31.00;23.10;95903.00;;;;5010834;28;20691;-56
2023/06/12 09:19:39;;;;;;;0.77;0.77;;;23.60;30.00;23.40;95892.00;;;;5029679;28;20290;-56
2023/06/12 09:22:07;;;;;;;1.33;1.30;;;23.80;22.60;23.60;95901.00;;;;5014418;28;20267;-55
2023/06/12 09:24:34;;;;;;;1.20;1.13;;;24.00;23.90;23.70;95900.00;;;;5014746;28;20208;-56
2023/06/12 09:27:04;;;;;;;1.00;1.00;;;24.00;24.20;23.70;95906.00;;;;5029169;28;20676;-55
2023/06/12 09:29:34;;;;;;;1.10;1.05;;;24.10;24.40;23.80;95909.00;;;;5015053;28;20197;-55
2023/06/12 09:32:02;;;;;;;1.35;1.27;;;24.20;25.20;23.70;95896.00;;;;5014038;28;20209;-55
2023/06/12 09:34:32;;;;;;;0.85;0.85;;;24.20;23.70;23.70;95900.00;;;;5010287;28;20196;-56
2023/06/12 09:37:00;;;;;;;0.80;0.80;;;;;23.70;95904.00;;;;5014833;28;20526;-55
2023/06/12 09:39:28;;;;;;;1.80;1.70;;;24.10;24.30;23.90;95900.00;;;;5033949;28;20201;-55
2023/06/12 09:41:57;;;;;;;1.58;1.48;;;24.30;25.00;23.90;95890.00;;;;5033937;28;20641;-55
2023/06/12 09:44:28;;;;;;;0.77;0.77;;;24.30;25.30;23.80;95890.00;;;;5033764;28;20197;-55
2023/06/12 09:47:02;;;;;;;0.85;0.85;;;24.30;26.40;24.20;95900.00;;;;5033681;28;20264;-55
2023/06/12 09:49:30;;;;;;;0.90;0.90;;;24.50;23.60;24.20;95908.00;;;;5048974;28;20566;-61
2023/06/12 09:52:02;;;;;;;0.88;0.88;;;24.50;25.30;24.10;95906.00;;;;5033531;28;20216;-56
2023/06/12 09:54:31;;;;;;;1.52;1.42;;;24.50;24.20;24.10;95899.00;;;;5033674;28;20267;-56
2023/06/12 09:57:02;;;;;;;0.95;0.95;;;;;24.10;95887.00;;;;5033497;28;20266;-56
2023/06/12 09:59:34;;;;;;;1.02;1.02;;;24.50;25.70;24.30;95913.00;;;;5029175;28;20182;-56
2023/06/12 10:02:10;;;;;;;1.02;1.02;;;24.60;25.50;24.40;95908.00;;;;5016033;28;20272;-55
2023/06/12 10:04:48;;;;;;;0.98;0.98;;;24.80;24.60;24.80;95916.00;;;;5032880;28;20189;-57
2023/06/12 10:07:22;;;;;;;1.15;1.15;;;25.00;25.00;24.60;95915.00;;;;5032381;28;20211;-58
2023/06/12 10:09:51;;;;;;;1.42;1.33;;;25.00;25.50;24.60;95896.00;;;;5033770;28;20242;-57
2023/06/12 10:12:19;;;;;;;1.45;1.35;;;;;24.90;95904.00;;;;5033079;28;20244;-56
2023/06/12 10:14:50;;;;;;;0.90;0.90;;;25.20;24.70;24.50;95893.00;;;;5033082;28;20200;-56
2023/06/12 10:17:19;;;;;;;1.88;1.75;;;25.00;35.50;24.80;95900.00;;;;5031726;28;20200;-56
2023/06/12 10:19:50;;;;;;;0.85;0.85;;;25.10;31.50;24.20;95886.00;;;;5033044;28;20189;-55
2023/06/12 10:22:17;;;;;;;1.02;1.02;;;24.80;29.80;24.70;95888.00;;;;5032895;28;20213;-56
2023/06/12 10:24:46;;;;;;;1.42;1.35;;;;;25.00;95893.00;;;;5032918;28;20192;-56
2023/06/12 10:27:13;;;;;;;1.30;1.25;;;25.30;26.30;24.70;95877.00;;;;5030616;28;20706;-56
2023/06/12 10:29:40;;;;;;;1.40;1.30;;;25.10;24.60;25.00;95893.00;;;;5031448;28;20212;-54
2023/06/12 10:32:11;;;;;;;1.73;1.63;;;25.30;24.10;24.80;95891.00;;;;5033175;28;20220;-55
2023/06/12 10:34:44;;;;;;;1.20;1.20;;;25.20;24.30;24.60;95885.00;;;;5031238;28;20201;-55
2023/06/12 10:37:26;;;;;;;1.50;1.42;;;25.00;24.50;24.80;95885.00;;;;5033069;28;20185;-55
2023/06/12 10:40:11;;;;;;;1.00;1.00;;;25.20;25.30;24.90;95876.00;;;;5032762;28;20197;-55
2023/06/12 10:42:43;;;;;;;1.58;1.48;;;;;25.10;95882.00;;;;5033087;28;20242;-55
2023/06/12 10:45:22;;;;;;;1.00;1.00;;;25.40;24.10;25.10;95864.00;;;;5011253;28;20193;-55
2023/06/12 10:48:17;;;;;;;1.52;1.40;;;25.40;24.10;25.50;95866.00;;;;5011644;28;20204;-55
2023/06/12 10:50:48;;;;;;;1.10;1.10;;;25.70;23.30;25.90;95869.00;;;;5012699;28;20189;-56
2023/06/12 10:53:20;;;;;;;1.10;1.00;;;26.10;23.50;25.60;95867.00;;;;5012911;28;20283;-55
2023/06/12 10:55:47;;;;;;;1.23;1.23;;;25.90;22.00;25.70;95863.00;;;;5013009;28;20524;-56
2023/06/12 10:58:18;;;;;;;1.77;1.10;;;26.00;22.20;25.70;95859.00;;;;5012992;28;20194;-55
2023/06/12 11:00:47;;;;;;;1.00;1.00;;;;;25.50;95851.00;;;;5012328;28;20438;-55
2023/06/12 11:03:21;;;;;;;0.70;0.70;;;;;25.90;95853.00;;;;5011412;28;20229;-56
2023/06/12 11:05:51;;;;;;;1.23;1.13;;;;;25.60;95854.00;;;;5010860;28;20684;-57
2023/06/12 11:08:20;;;;;;;1.02;1.02;;;;;25.80;95852.00;;;;5012780;28;20213;-56
2023/06/12 11:10:47;;;;;;;0.90;0.90;;;26.10;20.90;25.80;95854.00;;;;5021042;28;20280;-56
2023/06/12 11:13:14;;;;;;;1.65;1.40;;;26.10;21.20;26.10;95844.00;;;;5032235;28;20212;-56